createdAt,value
2023-08-14T00:01:30.873Z,15.1
2023-08-14T00:03:37.407Z,15
2023-08-14T00:05:40.818Z,15
2023-08-14T00:07:44.210Z,15.1
2023-08-14T00:08:47.471Z,15
2023-08-14T00:29:24.951Z,15.1
2023-08-14T00:31:31.527Z,15.1
2023-08-14T00:33:34.901Z,14.9
2023-08-14T00:35:38.355Z,14.9
2023-08-14T00:37:41.803Z,14.9
2023-08-14T00:41:48.695Z,14.9
2023-08-14T00:43:52.137Z,15.1
2023-08-14T00:48:02.126Z,14.9
2023-08-14T00:50:05.541Z,14.9
2023-08-14T00:52:09.221Z,14.9
2023-08-14T00:54:12.409Z,15
2023-08-14T00:56:15.867Z,14.9
2023-08-14T00:58:19.310Z,14.9
2023-08-14T01:00:25.923Z,14.9
2023-08-14T01:04:32.761Z,14.7
2023-08-14T01:05:36.022Z,14.9
2023-08-14T01:09:42.896Z,14.8
2023-08-14T01:13:52.858Z,14.8
2023-08-14T01:15:56.344Z,14.7
2023-08-14T01:17:59.821Z,14.8
2023-08-14T01:20:03.246Z,14.6
2023-08-14T01:22:06.713Z,14.8
2023-08-14T01:24:10.142Z,14.7
2023-08-14T01:28:20.109Z,14.8
2023-08-14T01:30:23.683Z,14.6
2023-08-14T01:32:27.031Z,14.7
2023-08-14T01:34:30.481Z,14.7
2023-08-14T01:36:33.950Z,14.6
2023-08-14T01:40:40.875Z,14.4
2023-08-14T01:42:47.401Z,14.5
2023-08-14T01:48:57.810Z,14.5
2023-08-14T01:53:04.606Z,14.6
2023-08-14T01:55:08.081Z,14.7
2023-08-14T01:57:14.651Z,14.5
2023-08-14T01:59:18.105Z,14.5
2023-08-14T02:01:21.550Z,14.4
2023-08-14T02:18:55.476Z,14.6
2023-08-14T02:20:58.911Z,14.5
2023-08-14T02:23:02.359Z,14.4
2023-08-14T02:25:08.927Z,14.5
2023-08-14T02:27:12.364Z,14.4
2023-08-14T02:31:19.309Z,14.5
2023-08-14T02:33:22.724Z,14.6
2023-08-14T02:37:29.627Z,14.7
2023-08-14T02:39:36.217Z,14.4
2023-08-14T02:41:39.605Z,14.5
2023-08-14T02:43:43.100Z,14.3
2023-08-14T02:45:46.561Z,14.3
2023-08-14T02:47:50.046Z,14.5
2023-08-14T02:49:53.413Z,14.5
2023-08-14T02:51:56.890Z,14.3
2023-08-14T02:54:03.423Z,14.3
2023-08-14T03:15:01.260Z,14.3
2023-08-14T03:17:04.701Z,14.1
2023-08-14T03:19:08.163Z,14.1
2023-08-14T03:21:14.728Z,14.1
2023-08-14T03:23:18.175Z,14
2023-08-14T03:25:21.651Z,14
2023-08-14T03:27:25.108Z,14.2
2023-08-14T03:31:32.003Z,14
2023-08-14T03:33:35.488Z,14.2
2023-08-14T03:37:45.506Z,14
2023-08-14T03:39:48.996Z,14
2023-08-14T03:41:52.450Z,14
2023-08-14T03:43:55.887Z,14
2023-08-14T03:45:59.435Z,14
2023-08-14T03:48:02.911Z,14
2023-08-14T03:50:09.350Z,13.9
2023-08-14T03:52:12.992Z,13.9
2023-08-14T03:54:16.322Z,13.9
2023-08-14T03:55:19.591Z,13.9
2023-08-14T03:59:26.541Z,13.9
2023-08-14T04:01:30.014Z,13.9
2023-08-14T04:03:36.642Z,13.9
2023-08-14T04:07:43.500Z,13.9
2023-08-14T04:09:46.981Z,13.9
2023-08-14T04:13:53.947Z,13.9
2023-08-14T04:15:57.408Z,13.9
2023-08-14T04:18:04.008Z,13.9
2023-08-14T04:20:07.456Z,13.9
2023-08-14T04:22:10.940Z,13.9
2023-08-14T04:24:14.399Z,13.9
2023-08-14T04:26:17.921Z,13.9
2023-08-14T04:30:24.838Z,13.9
2023-08-14T04:32:31.435Z,13.9
2023-08-14T04:36:38.351Z,14
2023-08-14T04:42:48.808Z,14
2023-08-14T04:52:09.058Z,14.1
2023-08-14T04:54:12.586Z,14.2
2023-08-14T04:56:16.036Z,14.2
2023-08-14T04:58:21.929Z,14.2
2023-08-14T05:00:26.081Z,14.2
2023-08-14T05:02:29.561Z,14.3
2023-08-14T05:04:33.067Z,14.3
2023-08-14T05:06:36.510Z,14.4
2023-08-14T05:19:00.376Z,14.8
2023-08-14T05:31:24.330Z,15.2
2023-08-14T05:37:34.611Z,15.4
2023-08-14T05:39:38.087Z,15.5
2023-08-14T05:41:41.518Z,15.6
2023-08-14T05:43:48.059Z,15.8
2023-08-14T05:45:51.576Z,15.9
2023-08-14T05:57:15.153Z,16.4
2023-08-14T06:01:22.088Z,16.4
2023-08-14T06:05:28.930Z,16.5
2023-08-14T06:11:42.290Z,16.7
2023-08-14T06:13:45.754Z,16.7
2023-08-14T06:21:59.436Z,16.8
2023-08-14T06:24:02.868Z,16.9
2023-08-14T06:28:12.804Z,17
2023-08-14T06:30:16.234Z,17
2023-08-14T06:32:19.938Z,17.1
2023-08-14T06:34:23.068Z,17.2
2023-08-14T06:38:29.855Z,17.1
2023-08-14T06:42:39.715Z,17.2
2023-08-14T06:44:43.109Z,17.3
2023-08-14T06:47:01.017Z,17.4
2023-08-14T06:49:04.378Z,17.4
2023-08-14T06:51:07.796Z,17.4
2023-08-14T06:59:24.488Z,17.7
2023-08-14T07:01:27.869Z,17.8
2023-08-14T07:03:31.409Z,17.9
2023-08-14T07:05:34.633Z,18
2023-08-14T07:07:41.145Z,18.4
2023-08-14T07:09:44.537Z,18.5
2023-08-14T07:11:47.881Z,18.6
2023-08-14T07:13:51.288Z,18.5
2023-08-14T07:15:54.662Z,18.6
2023-08-14T07:17:58.108Z,19.2
2023-08-14T07:20:01.287Z,19.8
2023-08-14T07:22:07.784Z,20.6
2023-08-14T07:28:17.676Z,20.4
2023-08-14T07:30:20.979Z,20.2
2023-08-14T07:32:24.271Z,20
2023-08-14T07:34:27.483Z,19.7
2023-08-14T07:36:34.939Z,19.6
2023-08-14T07:38:36.939Z,19.6
2023-08-14T07:40:40.186Z,19.8
2023-08-14T07:41:43.305Z,20.1
2023-08-14T07:45:49.764Z,20.1
2023-08-14T07:49:59.158Z,20.2
2023-08-14T07:52:02.432Z,20.2
2023-08-14T07:54:05.574Z,20
2023-08-14T07:56:08.741Z,20.2
2023-08-14T08:00:15.248Z,20.5
2023-08-14T08:06:27.798Z,21
2023-08-14T08:12:37.354Z,20.9
2023-08-14T08:14:41.123Z,20.7
2023-08-14T08:16:43.673Z,20.7
2023-08-14T08:18:49.882Z,20.8
2023-08-14T08:22:56.220Z,21.2
2023-08-14T08:24:59.383Z,21.9
2023-08-14T08:29:05.708Z,22.1
2023-08-14T08:37:21.340Z,23.3
2023-08-14T08:38:24.438Z,25.4
2023-08-14T08:40:27.593Z,25.9
2023-08-14T08:42:30.735Z,25.2
2023-08-14T08:44:37.011Z,24.3
2023-08-14T08:46:44.160Z,24.1
2023-08-14T08:48:43.196Z,24.3
2023-08-14T08:50:46.180Z,25.8
2023-08-14T08:52:51.660Z,26.3
2023-08-14T08:54:52.322Z,25.7
2023-08-14T08:56:56.974Z,24.3
2023-08-14T08:58:59.986Z,23.4
2023-08-14T09:05:12.203Z,23.8
2023-08-14T09:07:15.245Z,23.9
2023-08-14T09:09:18.300Z,24
2023-08-14T09:11:21.348Z,24
2023-08-14T09:13:31.660Z,23.7
2023-08-14T09:15:33.231Z,23.7
2023-08-14T09:34:00.685Z,23.8
2023-08-14T09:37:06.731Z,24
2023-08-14T09:39:09.738Z,24
2023-08-14T09:45:21.877Z,24
2023-08-14T09:47:24.972Z,24.2
2023-08-14T09:49:27.865Z,24.2
2023-08-14T09:51:30.878Z,24
2023-08-14T09:53:33.877Z,24
2023-08-14T09:55:36.908Z,24.4
2023-08-14T09:57:42.992Z,24.7
2023-08-14T09:59:45.935Z,24.6
2023-08-14T10:01:49.017Z,24.3
2023-08-14T10:03:51.944Z,24.3
2023-08-14T10:10:00.921Z,24.7
2023-08-14T10:14:09.978Z,24.2
2023-08-14T10:16:12.990Z,24.2
2023-08-14T10:18:15.956Z,24.6
2023-08-14T10:20:18.884Z,24.8
2023-08-14T10:22:22.078Z,25
2023-08-14T10:28:33.911Z,25.5
2023-08-14T10:30:36.912Z,25.7
2023-08-14T10:33:00.232Z,25.5
2023-08-14T10:35:03.185Z,25.6
2023-08-14T10:37:06.109Z,26.1
2023-08-14T10:41:15.065Z,25.4
2023-08-14T10:43:17.978Z,25.7
2023-08-14T10:45:20.918Z,25.6
2023-08-14T10:47:23.849Z,25.2
2023-08-14T10:49:26.770Z,25.4
2023-08-14T10:51:29.695Z,25.7
2023-08-14T10:53:35.668Z,25.5
2023-08-14T10:57:41.515Z,25.4
2023-08-14T11:01:47.388Z,25.7
2023-08-14T11:03:50.278Z,25.9
2023-08-14T11:05:53.224Z,25.9
2023-08-14T11:10:04.686Z,25.2
2023-08-14T11:14:07.913Z,26.3
2023-08-14T11:16:10.863Z,26.4
2023-08-14T11:20:16.672Z,25.7
2023-08-14T11:22:22.659Z,25.8
2023-08-14T11:26:28.470Z,26.8
2023-08-14T11:27:31.443Z,26.5
2023-08-14T11:29:34.364Z,26.5
2023-08-14T11:31:41.722Z,26.8
2023-08-14T11:33:40.127Z,26.4
2023-08-14T11:35:46.967Z,25.7
2023-08-14T11:37:48.949Z,26
2023-08-14T11:39:51.820Z,26.7
2023-08-14T11:50:09.043Z,25.6
2023-08-14T11:52:11.858Z,25.7
2023-08-14T11:54:14.651Z,26.1
2023-08-14T12:12:51.673Z,26.7
2023-08-14T12:14:45.284Z,26.8
2023-08-14T12:18:53.824Z,26.4
2023-08-14T12:23:00.467Z,26.3
2023-08-14T12:24:02.110Z,26.7
2023-08-14T12:36:21.278Z,26.6
2023-08-14T12:42:29.225Z,26.5
2023-08-14T12:44:31.886Z,26.9
2023-08-14T12:46:37.661Z,26.8
2023-08-14T12:48:40.246Z,26.8
2023-08-14T12:50:42.871Z,26.6
2023-08-14T12:52:45.505Z,26
2023-08-14T12:54:48.143Z,26.3
2023-08-14T12:56:50.751Z,26.2
2023-08-14T12:58:54.600Z,26
2023-08-14T13:05:04.513Z,25.9
2023-08-14T13:09:09.839Z,26.7
2023-08-14T13:13:15.205Z,26.8
2023-08-14T13:17:23.690Z,26
2023-08-14T13:19:26.346Z,25.7
2023-08-14T13:20:29.234Z,25.7
2023-08-14T13:22:31.929Z,25.9
2023-08-14T13:24:34.618Z,26.4
2023-08-14T13:28:43.114Z,26.8
2023-08-14T13:30:45.825Z,26.8
2023-08-14T13:38:56.466Z,27.5
2023-08-14T13:40:59.114Z,27.4
2023-08-14T13:43:04.826Z,27.8
2023-08-14T14:01:30.981Z,28.4
2023-08-14T14:03:33.447Z,28.5
2023-08-14T14:05:35.941Z,28
2023-08-14T14:07:46.684Z,28
2023-08-14T14:09:41.800Z,27.9
2023-08-14T14:13:49.093Z,27.9
2023-08-14T14:18:14.779Z,26.9
2023-08-14T14:20:17.310Z,26.9
2023-08-14T14:22:19.875Z,26.9
2023-08-14T14:26:28.112Z,26.4
2023-08-14T14:28:30.860Z,26.3
2023-08-14T15:03:25.441Z,26.5
2023-08-14T15:12:42.833Z,26.3
2023-08-14T15:14:45.697Z,26.4
2023-08-14T15:18:51.457Z,26.3
2023-08-14T15:20:57.417Z,26.4
2023-08-14T15:23:00.301Z,26.4
2023-08-14T15:27:06.118Z,26.6
2023-08-14T15:29:09.009Z,26.9
2023-08-14T15:31:12.064Z,26.8
2023-08-14T15:33:14.821Z,27
2023-08-14T15:35:20.796Z,26.7
2023-08-14T15:37:23.717Z,26.6
2023-08-14T15:41:29.522Z,26.4
2023-08-14T16:04:07.722Z,26.5
2023-08-14T16:06:10.621Z,26.5
2023-08-14T16:09:16.508Z,26.2
2023-08-14T16:13:22.359Z,26.3
2023-08-14T16:19:34.177Z,26.2
2023-08-14T16:21:37.102Z,26.2
2023-08-14T16:23:40.009Z,26.2
2023-08-14T16:29:48.787Z,26.2
2023-08-14T16:44:12.404Z,26.4
2023-08-14T16:46:18.445Z,27.1
2023-08-14T16:48:21.319Z,27.9
2023-08-14T16:52:27.166Z,27.7
2023-08-14T16:54:30.077Z,27.2
2023-08-14T16:56:33.025Z,26.6
2023-08-14T17:05:50.761Z,26
2023-08-14T17:07:53.700Z,26
2023-08-14T17:09:56.590Z,25.9
2023-08-14T17:14:05.541Z,25.8
2023-08-14T17:16:08.474Z,25.8
2023-08-14T17:18:11.407Z,25.8
2023-08-14T17:20:14.303Z,25.9
2023-08-14T17:22:17.246Z,25.9
2023-08-14T17:24:20.169Z,25.8
2023-08-14T17:32:34.986Z,25.7
2023-08-14T17:34:38.721Z,25.7
2023-08-14T17:38:44.631Z,25.6
2023-08-14T17:49:02.474Z,25.4
2023-08-14T17:53:08.393Z,25.4
2023-08-14T17:57:17.411Z,25.3
2023-08-14T17:59:20.367Z,25.2
2023-08-14T18:01:23.388Z,25.2
2023-08-14T18:03:47.188Z,25.1
2023-08-14T18:07:53.032Z,25.2
2023-08-14T18:12:02.096Z,26.5
2023-08-14T18:18:11.085Z,28.2
2023-08-14T18:22:16.906Z,26.2
2023-08-14T18:24:22.924Z,25.2
2023-08-14T18:26:25.874Z,25.1
2023-08-14T18:32:34.830Z,23.5
2023-08-14T18:34:37.732Z,23.2
2023-08-14T18:36:40.734Z,23
2023-08-14T18:38:46.731Z,22.7
2023-08-14T18:40:49.717Z,22.6
2023-08-14T18:42:52.733Z,22.4
2023-08-14T18:44:55.702Z,22.4
2023-08-14T18:46:58.724Z,22.3
2023-08-14T18:49:01.753Z,22.2
2023-08-14T18:51:04.734Z,22.1
2023-08-14T18:53:10.793Z,21.9
2023-08-14T18:55:13.856Z,21.9
2023-08-14T18:57:17.170Z,21.8
2023-08-14T18:58:19.898Z,21.7
2023-08-14T19:00:22.957Z,21.6
2023-08-14T19:02:26.059Z,21.6
2023-08-14T19:04:40.865Z,21.5
2023-08-14T19:12:44.354Z,21.4
2023-08-14T19:14:47.419Z,21.4
2023-08-14T19:16:50.491Z,21.3
2023-08-14T19:20:59.685Z,21.2
2023-08-14T19:23:02.727Z,21.1
2023-08-14T19:25:05.820Z,21.1
2023-08-14T19:27:08.887Z,21.1
2023-08-14T19:29:11.990Z,21
2023-08-14T19:31:15.104Z,21
2023-08-14T19:35:24.296Z,20.9
2023-08-14T19:37:27.378Z,20.9
2023-08-14T19:39:30.475Z,20.9
2023-08-14T19:41:33.561Z,20.8
2023-08-14T19:43:36.657Z,20.8
2023-08-14T19:45:39.746Z,20.8
2023-08-14T19:47:42.905Z,20.7
2023-08-14T19:53:55.233Z,20.6
2023-08-14T20:01:07.608Z,20.4
2023-08-14T20:03:13.780Z,20.3
2023-08-14T20:05:16.830Z,20.3
2023-08-14T20:07:20.268Z,20.3
2023-08-14T20:09:23.114Z,20.2
2023-08-14T20:11:26.224Z,20.2
2023-08-14T20:13:29.378Z,20.1
2023-08-14T20:17:38.714Z,20
2023-08-14T20:19:41.807Z,20
2023-08-14T20:21:44.937Z,20
2023-08-14T20:23:48.082Z,19.9
2023-08-14T20:25:51.231Z,19.9
2023-08-14T20:27:54.387Z,19.8
2023-08-14T20:29:57.537Z,19.7
2023-08-14T20:32:03.829Z,19.7
2023-08-14T20:34:06.840Z,19.7
2023-08-14T20:51:39.823Z,19.2
2023-08-14T20:53:42.929Z,19.3
2023-08-14T20:57:49.306Z,19.2
2023-08-14T21:04:01.994Z,19.3
2023-08-14T21:14:20.780Z,19.2
2023-08-14T21:18:27.178Z,19
2023-08-14T21:22:33.594Z,19
2023-08-14T21:26:39.994Z,19
2023-08-14T21:28:46.586Z,19
2023-08-14T21:49:36.518Z,19.2
2023-08-14T21:51:39.800Z,19.2
2023-08-14T21:53:42.960Z,19.2
2023-08-14T21:55:49.211Z,19.2
2023-08-14T21:57:52.404Z,19.2
2023-08-14T22:01:58.857Z,19.2
2023-08-14T22:04:02.108Z,19
2023-08-14T22:06:05.332Z,19.1
2023-08-14T22:08:08.616Z,19.1
2023-08-14T22:10:14.861Z,19.1
2023-08-14T22:12:18.242Z,19
2023-08-14T22:14:21.339Z,19.1
2023-08-14T22:20:31.133Z,18.9
2023-08-14T22:22:34.459Z,19
2023-08-14T22:24:41.811Z,18.8
2023-08-14T22:26:44.139Z,18.8
2023-08-14T22:32:54.101Z,18.8
2023-08-14T22:37:00.608Z,18.7
2023-08-14T22:39:07.088Z,18.8
2023-08-14T22:41:10.397Z,18.8
2023-08-14T22:43:13.730Z,18.7
2023-08-14T22:44:16.964Z,18.7
2023-08-14T22:46:20.183Z,18.7
2023-08-14T22:48:23.431Z,18.6
2023-08-14T22:52:33.117Z,18.5
2023-08-14T22:54:36.381Z,18.4
2023-08-14T22:56:39.583Z,18.4
2023-08-14T22:58:42.853Z,18.4
2023-08-14T23:00:46.070Z,18.4
2023-08-14T23:02:49.422Z,18.3
2023-08-14T23:04:52.633Z,18.4
2023-08-14T23:06:59.020Z,18.3
2023-08-14T23:09:02.339Z,18.4
2023-08-14T23:11:05.583Z,18.5
2023-08-14T23:13:08.921Z,18.4
2023-08-14T23:15:12.252Z,18.4
2023-08-14T23:17:15.494Z,18.4
2023-08-14T23:19:18.846Z,18.4
2023-08-14T23:21:25.205Z,18.3
2023-08-14T23:23:28.528Z,18.3
2023-08-14T23:37:54.651Z,18.1
2023-08-14T23:39:57.993Z,18
2023-08-14T23:41:01.238Z,18.1
2023-08-14T23:45:07.824Z,18
2023-08-14T23:47:11.164Z,18
2023-08-14T23:49:17.439Z,18
2023-08-14T23:51:20.766Z,18.2
2023-08-14T23:53:24.005Z,18.3
2023-08-14T23:57:30.610Z,18
2023-08-14T23:59:33.958Z,18
